Terminal Aerodrome Forecast
Issued by NWS

Home | Current Version | Previous Version | Text Only | Print | Product List | Glossary On
Versions: 1 2 3 4 5 6 7 8 9 10 11 12 13 14 15 16 17 18 19 20 21 22 23 24 25 26
646
FTUS46 KMTR 250300 AAA
TAFSFO
TAF AMD
KSFO 250300Z 2503/2606 19015KT P6SM FEW015 SCT150 BKN250
     FM250600 26014KT P6SM SCT014 BKN250
      TEMPO 2506/2508 BKN014 OVC250
     FM250800 22010KT P6SM OVC014
     FM251500 20008KT P6SM BKN017
     FM251700 19005KT P6SM SCT017
     FM252100 26017G24KT P6SM FEW025=

USA.gov is the U.S. government's official web portal to all federal, state and local government web resources and services.